sensor_id;sensor_type;location;lat;lon;timestamp;P1;durP1;ratioP1;P2;durP2;ratioP2
54899;SDS011;40801;41.924;25.562;2023-04-03T00:01:05;4.85;;;4.57;;
54899;SDS011;40801;41.924;25.562;2023-04-03T00:03:31;5.22;;;4.72;;
54899;SDS011;40801;41.924;25.562;2023-04-03T00:05:56;5.15;;;4.75;;
54899;SDS011;40801;41.924;25.562;2023-04-03T00:08:22;5.85;;;5.20;;
54899;SDS011;40801;41.924;25.562;2023-04-03T00:10:47;4.72;;;4.25;;
54899;SDS011;40801;41.924;25.562;2023-04-03T00:13:13;4.72;;;4.43;;
54899;SDS011;40801;41.924;25.562;2023-04-03T00:15:39;5.47;;;4.97;;
54899;SDS011;40801;41.924;25.562;2023-04-03T00:18:05;4.80;;;4.50;;
54899;SDS011;40801;41.924;25.562;2023-04-03T00:20:30;4.82;;;4.45;;
54899;SDS011;40801;41.924;25.562;2023-04-03T00:22:56;5.07;;;4.68;;
54899;SDS011;40801;41.924;25.562;2023-04-03T00:25:22;6.22;;;5.30;;
54899;SDS011;40801;41.924;25.562;2023-04-03T00:27:47;5.57;;;5.18;;
54899;SDS011;40801;41.924;25.562;2023-04-03T00:30:14;6.18;;;5.57;;
54899;SDS011;40801;41.924;25.562;2023-04-03T00:32:41;5.32;;;4.93;;
54899;SDS011;40801;41.924;25.562;2023-04-03T00:35:06;5.38;;;4.90;;
54899;SDS011;40801;41.924;25.562;2023-04-03T00:37:32;5.22;;;4.82;;
54899;SDS011;40801;41.924;25.562;2023-04-03T00:39:58;4.55;;;4.15;;
54899;SDS011;40801;41.924;25.562;2023-04-03T00:42:23;4.47;;;4.07;;
54899;SDS011;40801;41.924;25.562;2023-04-03T00:47:17;4.85;;;4.32;;
54899;SDS011;40801;41.924;25.562;2023-04-03T00:49:43;4.82;;;4.43;;
54899;SDS011;40801;41.924;25.562;2023-04-03T00:52:12;4.80;;;4.50;;
54899;SDS011;40801;41.924;25.562;2023-04-03T00:54:41;4.63;;;4.25;;
54899;SDS011;40801;41.924;25.562;2023-04-03T00:57:07;4.32;;;4.13;;
54899;SDS011;40801;41.924;25.562;2023-04-03T00:59:35;5.85;;;5.35;;
54899;SDS011;40801;41.924;25.562;2023-04-03T01:02:05;4.72;;;4.35;;
54899;SDS011;40801;41.924;25.562;2023-04-03T01:04:35;5.43;;;4.05;;
54899;SDS011;40801;41.924;25.562;2023-04-03T01:07:09;4.88;;;4.50;;
54899;SDS011;40801;41.924;25.562;2023-04-03T01:09:37;5.20;;;4.60;;
54899;SDS011;40801;41.924;25.562;2023-04-03T01:12:17;5.65;;;5.25;;
54899;SDS011;40801;41.924;25.562;2023-04-03T01:14:46;6.32;;;5.75;;
54899;SDS011;40801;41.924;25.562;2023-04-03T01:17:48;5.93;;;5.53;;
54899;SDS011;40801;41.924;25.562;2023-04-03T01:25:35;6.13;;;5.32;;
54899;SDS011;40801;41.924;25.562;2023-04-03T01:28:03;6.03;;;5.43;;
54899;SDS011;40801;41.924;25.562;2023-04-03T01:30:36;5.65;;;5.05;;
54899;SDS011;40801;41.924;25.562;2023-04-03T01:35:44;4.95;;;4.65;;
54899;SDS011;40801;41.924;25.562;2023-04-03T01:38:10;4.90;;;4.50;;
54899;SDS011;40801;41.924;25.562;2023-04-03T01:40:35;5.35;;;4.90;;
54899;SDS011;40801;41.924;25.562;2023-04-03T01:43:01;5.03;;;4.63;;
54899;SDS011;40801;41.924;25.562;2023-04-03T01:45:26;7.35;;;4.93;;
54899;SDS011;40801;41.924;25.562;2023-04-03T01:47:51;4.65;;;4.35;;
54899;SDS011;40801;41.924;25.562;2023-04-03T01:50:17;5.20;;;4.53;;
54899;SDS011;40801;41.924;25.562;2023-04-03T01:52:42;4.38;;;4.07;;
54899;SDS011;40801;41.924;25.562;2023-04-03T01:55:08;6.50;;;5.22;;
54899;SDS011;40801;41.924;25.562;2023-04-03T01:57:33;5.70;;;4.43;;
54899;SDS011;40801;41.924;25.562;2023-04-03T01:59:59;6.05;;;5.00;;
54899;SDS011;40801;41.924;25.562;2023-04-03T02:02:24;5.68;;;5.18;;
54899;SDS011;40801;41.924;25.562;2023-04-03T02:04:50;9.48;;;5.45;;
54899;SDS011;40801;41.924;25.562;2023-04-03T02:07:15;6.38;;;5.88;;
54899;SDS011;40801;41.924;25.562;2023-04-03T02:09:40;5.35;;;4.95;;
54899;SDS011;40801;41.924;25.562;2023-04-03T02:12:06;5.95;;;5.50;;
54899;SDS011;40801;41.924;25.562;2023-04-03T02:14:31;8.73;;;8.02;;
54899;SDS011;40801;41.924;25.562;2023-04-03T02:16:57;5.65;;;5.18;;
54899;SDS011;40801;41.924;25.562;2023-04-03T02:19:22;6.85;;;5.57;;
54899;SDS011;40801;41.924;25.562;2023-04-03T02:21:48;6.32;;;5.68;;
54899;SDS011;40801;41.924;25.562;2023-04-03T02:24:13;5.20;;;4.80;;
54899;SDS011;40801;41.924;25.562;2023-04-03T02:26:39;6.22;;;5.72;;
54899;SDS011;40801;41.924;25.562;2023-04-03T02:29:04;5.25;;;4.85;;
54899;SDS011;40801;41.924;25.562;2023-04-03T02:31:29;5.72;;;5.32;;
54899;SDS011;40801;41.924;25.562;2023-04-03T02:33:55;5.70;;;5.22;;
54899;SDS011;40801;41.924;25.562;2023-04-03T02:36:20;6.32;;;5.40;;
54899;SDS011;40801;41.924;25.562;2023-04-03T02:38:46;6.32;;;5.82;;
54899;SDS011;40801;41.924;25.562;2023-04-03T02:41:11;8.73;;;6.18;;
54899;SDS011;40801;41.924;25.562;2023-04-03T02:43:37;6.15;;;5.55;;
54899;SDS011;40801;41.924;25.562;2023-04-03T02:46:03;5.85;;;5.28;;
54899;SDS011;40801;41.924;25.562;2023-04-03T02:48:30;6.95;;;6.25;;
54899;SDS011;40801;41.924;25.562;2023-04-03T02:50:55;6.07;;;5.47;;
54899;SDS011;40801;41.924;25.562;2023-04-03T02:53:21;6.90;;;6.22;;
54899;SDS011;40801;41.924;25.562;2023-04-03T02:55:46;6.28;;;5.88;;
54899;SDS011;40801;41.924;25.562;2023-04-03T02:58:12;7.03;;;5.95;;
54899;SDS011;40801;41.924;25.562;2023-04-03T03:00:37;6.68;;;5.85;;
54899;SDS011;40801;41.924;25.562;2023-04-03T03:03:03;6.90;;;6.30;;
54899;SDS011;40801;41.924;25.562;2023-04-03T03:05:29;6.00;;;5.32;;
54899;SDS011;40801;41.924;25.562;2023-04-03T03:07:55;7.72;;;6.00;;
54899;SDS011;40801;41.924;25.562;2023-04-03T03:10:21;6.38;;;5.50;;
54899;SDS011;40801;41.924;25.562;2023-04-03T03:12:47;5.78;;;5.45;;
54899;SDS011;40801;41.924;25.562;2023-04-03T03:15:13;5.47;;;5.10;;
54899;SDS011;40801;41.924;25.562;2023-04-03T03:17:40;5.65;;;4.93;;
54899;SDS011;40801;41.924;25.562;2023-04-03T03:20:05;6.13;;;5.57;;
54899;SDS011;40801;41.924;25.562;2023-04-03T03:22:31;5.28;;;4.97;;
54899;SDS011;40801;41.924;25.562;2023-04-03T03:24:57;6.05;;;5.43;;
54899;SDS011;40801;41.924;25.562;2023-04-03T03:27:22;6.80;;;6.15;;
54899;SDS011;40801;41.924;25.562;2023-04-03T03:29:49;7.50;;;6.78;;
54899;SDS011;40801;41.924;25.562;2023-04-03T03:32:14;8.27;;;7.18;;
54899;SDS011;40801;41.924;25.562;2023-04-03T03:34:40;7.78;;;7.18;;
54899;SDS011;40801;41.924;25.562;2023-04-03T03:37:05;7.72;;;6.80;;
54899;SDS011;40801;41.924;25.562;2023-04-03T03:39:31;7.10;;;6.60;;
54899;SDS011;40801;41.924;25.562;2023-04-03T03:41:56;6.60;;;6.00;;
54899;SDS011;40801;41.924;25.562;2023-04-03T03:44:21;7.95;;;6.53;;
54899;SDS011;40801;41.924;25.562;2023-04-03T03:46:47;7.55;;;6.85;;
54899;SDS011;40801;41.924;25.562;2023-04-03T03:49:12;8.57;;;6.80;;
54899;SDS011;40801;41.924;25.562;2023-04-03T03:51:38;8.68;;;7.93;;
54899;SDS011;40801;41.924;25.562;2023-04-03T03:54:05;8.20;;;7.50;;
54899;SDS011;40801;41.924;25.562;2023-04-03T03:56:31;7.30;;;6.55;;
54899;SDS011;40801;41.924;25.562;2023-04-03T03:58:56;7.55;;;6.82;;
54899;SDS011;40801;41.924;25.562;2023-04-03T04:01:22;8.48;;;7.32;;
54899;SDS011;40801;41.924;25.562;2023-04-03T04:03:48;9.00;;;8.15;;
54899;SDS011;40801;41.924;25.562;2023-04-03T04:06:14;12.13;;;9.60;;
54899;SDS011;40801;41.924;25.562;2023-04-03T04:08:40;13.73;;;9.73;;
54899;SDS011;40801;41.924;25.562;2023-04-03T04:11:06;10.52;;;9.48;;
54899;SDS011;40801;41.924;25.562;2023-04-03T04:13:32;9.68;;;8.70;;
54899;SDS011;40801;41.924;25.562;2023-04-03T04:15:57;10.18;;;8.45;;
54899;SDS011;40801;41.924;25.562;2023-04-03T04:18:22;8.70;;;8.00;;
54899;SDS011;40801;41.924;25.562;2023-04-03T04:20:48;9.13;;;8.32;;
54899;SDS011;40801;41.924;25.562;2023-04-03T04:23:14;7.95;;;7.45;;
54899;SDS011;40801;41.924;25.562;2023-04-03T04:25:40;9.18;;;8.27;;
54899;SDS011;40801;41.924;25.562;2023-04-03T04:28:06;10.82;;;9.85;;
54899;SDS011;40801;41.924;25.562;2023-04-03T04:30:31;12.05;;;10.02;;
54899;SDS011;40801;41.924;25.562;2023-04-03T04:32:57;11.02;;;9.93;;
54899;SDS011;40801;41.924;25.562;2023-04-03T04:35:22;28.88;;;25.45;;
54899;SDS011;40801;41.924;25.562;2023-04-03T04:37:48;15.45;;;10.18;;
54899;SDS011;40801;41.924;25.562;2023-04-03T04:40:13;13.65;;;12.13;;
54899;SDS011;40801;41.924;25.562;2023-04-03T04:42:39;15.10;;;13.50;;
54899;SDS011;40801;41.924;25.562;2023-04-03T04:45:04;12.60;;;11.30;;
54899;SDS011;40801;41.924;25.562;2023-04-03T04:47:30;13.20;;;10.60;;
54899;SDS011;40801;41.924;25.562;2023-04-03T04:49:55;14.23;;;12.82;;
54899;SDS011;40801;41.924;25.562;2023-04-03T04:52:21;12.55;;;10.65;;
54899;SDS011;40801;41.924;25.562;2023-04-03T04:54:46;13.40;;;12.02;;
54899;SDS011;40801;41.924;25.562;2023-04-03T04:57:11;13.38;;;10.73;;
54899;SDS011;40801;41.924;25.562;2023-04-03T04:59:37;11.77;;;10.70;;
54899;SDS011;40801;41.924;25.562;2023-04-03T05:02:02;12.07;;;10.68;;
54899;SDS011;40801;41.924;25.562;2023-04-03T05:04:27;9.45;;;8.55;;
54899;SDS011;40801;41.924;25.562;2023-04-03T05:06:53;14.07;;;10.13;;
54899;SDS011;40801;41.924;25.562;2023-04-03T05:09:18;12.00;;;10.82;;
54899;SDS011;40801;41.924;25.562;2023-04-03T05:11:45;10.95;;;9.90;;
54899;SDS011;40801;41.924;25.562;2023-04-03T05:14:11;14.20;;;10.63;;
54899;SDS011;40801;41.924;25.562;2023-04-03T05:16:36;12.82;;;11.38;;
54899;SDS011;40801;41.924;25.562;2023-04-03T05:19:01;11.70;;;10.48;;
54899;SDS011;40801;41.924;25.562;2023-04-03T05:21:27;12.25;;;10.90;;
54899;SDS011;40801;41.924;25.562;2023-04-03T05:23:56;21.60;;;18.27;;
54899;SDS011;40801;41.924;25.562;2023-04-03T05:26:23;18.45;;;16.48;;
54899;SDS011;40801;41.924;25.562;2023-04-03T05:28:48;15.43;;;13.70;;
54899;SDS011;40801;41.924;25.562;2023-04-03T05:31:14;13.68;;;12.40;;
54899;SDS011;40801;41.924;25.562;2023-04-03T05:33:40;12.18;;;10.98;;
54899;SDS011;40801;41.924;25.562;2023-04-03T05:36:05;12.05;;;10.90;;
54899;SDS011;40801;41.924;25.562;2023-04-03T05:38:31;15.57;;;10.98;;
54899;SDS011;40801;41.924;25.562;2023-04-03T05:40:57;12.82;;;11.52;;
54899;SDS011;40801;41.924;25.562;2023-04-03T05:43:22;12.38;;;10.93;;
54899;SDS011;40801;41.924;25.562;2023-04-03T05:45:48;14.30;;;13.00;;
54899;SDS011;40801;41.924;25.562;2023-04-03T05:48:13;15.10;;;13.70;;
54899;SDS011;40801;41.924;25.562;2023-04-03T05:50:39;9.98;;;9.15;;
54899;SDS011;40801;41.924;25.562;2023-04-03T05:53:06;10.25;;;8.93;;
54899;SDS011;40801;41.924;25.562;2023-04-03T05:55:34;7.95;;;7.35;;
54899;SDS011;40801;41.924;25.562;2023-04-03T05:57:59;8.20;;;7.50;;
54899;SDS011;40801;41.924;25.562;2023-04-03T06:00:25;17.52;;;15.55;;
54899;SDS011;40801;41.924;25.562;2023-04-03T06:02:50;10.45;;;9.10;;
54899;SDS011;40801;41.924;25.562;2023-04-03T06:05:15;8.32;;;6.72;;
54899;SDS011;40801;41.924;25.562;2023-04-03T06:07:41;9.45;;;8.65;;
54899;SDS011;40801;41.924;25.562;2023-04-03T06:10:07;8.98;;;8.25;;
54899;SDS011;40801;41.924;25.562;2023-04-03T06:12:33;15.77;;;14.20;;
54899;SDS011;40801;41.924;25.562;2023-04-03T06:14:59;17.77;;;15.48;;
54899;SDS011;40801;41.924;25.562;2023-04-03T06:17:24;18.80;;;15.80;;
54899;SDS011;40801;41.924;25.562;2023-04-03T06:19:50;12.40;;;11.20;;
54899;SDS011;40801;41.924;25.562;2023-04-03T06:22:15;16.45;;;13.63;;
54899;SDS011;40801;41.924;25.562;2023-04-03T06:24:41;15.27;;;13.88;;
54899;SDS011;40801;41.924;25.562;2023-04-03T06:27:06;11.05;;;9.93;;
54899;SDS011;40801;41.924;25.562;2023-04-03T06:29:32;10.27;;;8.80;;
54899;SDS011;40801;41.924;25.562;2023-04-03T06:31:57;9.38;;;8.40;;
54899;SDS011;40801;41.924;25.562;2023-04-03T06:34:23;10.77;;;9.70;;
54899;SDS011;40801;41.924;25.562;2023-04-03T06:36:48;10.45;;;9.15;;
54899;SDS011;40801;41.924;25.562;2023-04-03T06:39:16;23.52;;;16.50;;
54899;SDS011;40801;41.924;25.562;2023-04-03T06:41:45;16.88;;;14.27;;
54899;SDS011;40801;41.924;25.562;2023-04-03T06:44:10;11.05;;;9.95;;
54899;SDS011;40801;41.924;25.562;2023-04-03T06:46:38;17.30;;;12.65;;
54899;SDS011;40801;41.924;25.562;2023-04-03T06:49:04;46.50;;;21.30;;
54899;SDS011;40801;41.924;25.562;2023-04-03T06:51:32;23.05;;;13.32;;
54899;SDS011;40801;41.924;25.562;2023-04-03T06:53:58;16.92;;;15.25;;
54899;SDS011;40801;41.924;25.562;2023-04-03T06:56:25;17.67;;;11.27;;
54899;SDS011;40801;41.924;25.562;2023-04-03T06:58:51;13.82;;;12.48;;
54899;SDS011;40801;41.924;25.562;2023-04-03T07:01:19;13.80;;;11.98;;
54899;SDS011;40801;41.924;25.562;2023-04-03T07:03:46;14.18;;;11.68;;
54899;SDS011;40801;41.924;25.562;2023-04-03T07:06:13;17.42;;;14.45;;
54899;SDS011;40801;41.924;25.562;2023-04-03T07:08:40;14.25;;;11.88;;
54899;SDS011;40801;41.924;25.562;2023-04-03T07:11:07;15.02;;;13.38;;
54899;SDS011;40801;41.924;25.562;2023-04-03T07:13:33;13.35;;;11.98;;
54899;SDS011;40801;41.924;25.562;2023-04-03T07:15:59;13.15;;;11.70;;
54899;SDS011;40801;41.924;25.562;2023-04-03T07:18:25;12.93;;;11.48;;
54899;SDS011;40801;41.924;25.562;2023-04-03T07:20:51;16.27;;;14.57;;
54899;SDS011;40801;41.924;25.562;2023-04-03T07:23:16;12.50;;;9.25;;
54899;SDS011;40801;41.924;25.562;2023-04-03T07:25:43;9.48;;;7.88;;
54899;SDS011;40801;41.924;25.562;2023-04-03T07:28:09;10.60;;;8.70;;
54899;SDS011;40801;41.924;25.562;2023-04-03T07:30:41;8.82;;;8.02;;
54899;SDS011;40801;41.924;25.562;2023-04-03T07:33:07;12.13;;;9.10;;
54899;SDS011;40801;41.924;25.562;2023-04-03T07:35:33;10.05;;;7.93;;
54899;SDS011;40801;41.924;25.562;2023-04-03T07:37:58;7.85;;;7.18;;
54899;SDS011;40801;41.924;25.562;2023-04-03T07:40:23;9.98;;;8.98;;
54899;SDS011;40801;41.924;25.562;2023-04-03T07:42:50;9.00;;;8.10;;
54899;SDS011;40801;41.924;25.562;2023-04-03T07:45:16;10.30;;;9.05;;
54899;SDS011;40801;41.924;25.562;2023-04-03T07:47:42;10.07;;;9.07;;
54899;SDS011;40801;41.924;25.562;2023-04-03T07:50:07;10.65;;;9.32;;
54899;SDS011;40801;41.924;25.562;2023-04-03T07:52:33;13.15;;;9.70;;
54899;SDS011;40801;41.924;25.562;2023-04-03T07:54:59;12.05;;;10.57;;
54899;SDS011;40801;41.924;25.562;2023-04-03T07:57:24;11.00;;;9.93;;
54899;SDS011;40801;41.924;25.562;2023-04-03T07:59:50;41.92;;;34.75;;
54899;SDS011;40801;41.924;25.562;2023-04-03T08:02:15;17.92;;;12.85;;
54899;SDS011;40801;41.924;25.562;2023-04-03T08:04:40;14.80;;;11.60;;
54899;SDS011;40801;41.924;25.562;2023-04-03T08:07:06;18.85;;;14.23;;
54899;SDS011;40801;41.924;25.562;2023-04-03T08:09:31;25.88;;;21.25;;
54899;SDS011;40801;41.924;25.562;2023-04-03T08:11:57;19.23;;;14.80;;
54899;SDS011;40801;41.924;25.562;2023-04-03T08:14:23;14.15;;;11.65;;
54899;SDS011;40801;41.924;25.562;2023-04-03T08:16:49;12.52;;;9.88;;
54899;SDS011;40801;41.924;25.562;2023-04-03T08:19:15;11.93;;;10.43;;
54899;SDS011;40801;41.924;25.562;2023-04-03T08:21:43;11.15;;;7.80;;
54899;SDS011;40801;41.924;25.562;2023-04-03T08:24:09;10.05;;;8.45;;
54899;SDS011;40801;41.924;25.562;2023-04-03T08:26:35;13.48;;;7.50;;
54899;SDS011;40801;41.924;25.562;2023-04-03T08:29:00;12.27;;;7.90;;
54899;SDS011;40801;41.924;25.562;2023-04-03T08:31:26;7.88;;;7.10;;
54899;SDS011;40801;41.924;25.562;2023-04-03T08:33:52;13.00;;;9.23;;
54899;SDS011;40801;41.924;25.562;2023-04-03T08:38:49;11.27;;;9.02;;
54899;SDS011;40801;41.924;25.562;2023-04-03T08:44:03;10.27;;;8.25;;
54899;SDS011;40801;41.924;25.562;2023-04-03T08:46:56;14.18;;;9.95;;
54899;SDS011;40801;41.924;25.562;2023-04-03T08:49:45;15.40;;;12.25;;
54899;SDS011;40801;41.924;25.562;2023-04-03T08:57:45;18.50;;;12.35;;
54899;SDS011;40801;41.924;25.562;2023-04-03T09:03:00;9.60;;;8.50;;
54899;SDS011;40801;41.924;25.562;2023-04-03T09:08:14;8.73;;;7.35;;
54899;SDS011;40801;41.924;25.562;2023-04-03T09:10:44;7.25;;;5.82;;
54899;SDS011;40801;41.924;25.562;2023-04-03T09:13:19;9.27;;;7.07;;
54899;SDS011;40801;41.924;25.562;2023-04-03T09:15:51;7.80;;;6.97;;
54899;SDS011;40801;41.924;25.562;2023-04-03T09:18:38;8.65;;;6.72;;
54899;SDS011;40801;41.924;25.562;2023-04-03T09:23:43;10.48;;;8.00;;
54899;SDS011;40801;41.924;25.562;2023-04-03T09:28:58;16.45;;;10.25;;
54899;SDS011;40801;41.924;25.562;2023-04-03T09:31:27;9.00;;;8.10;;
54899;SDS011;40801;41.924;25.562;2023-04-03T09:33:59;10.98;;;9.85;;
54899;SDS011;40801;41.924;25.562;2023-04-03T09:36:50;13.30;;;12.05;;
54899;SDS011;40801;41.924;25.562;2023-04-03T09:42:14;26.67;;;24.45;;
54899;SDS011;40801;41.924;25.562;2023-04-03T09:44:48;23.73;;;21.73;;
54899;SDS011;40801;41.924;25.562;2023-04-03T09:47:24;26.00;;;23.52;;
54899;SDS011;40801;41.924;25.562;2023-04-03T09:52:39;27.73;;;25.40;;
54899;SDS011;40801;41.924;25.562;2023-04-03T09:55:15;31.58;;;28.98;;
54899;SDS011;40801;41.924;25.562;2023-04-03T09:57:58;14.55;;;13.07;;
54899;SDS011;40801;41.924;25.562;2023-04-03T10:00:27;11.43;;;10.32;;
54899;SDS011;40801;41.924;25.562;2023-04-03T10:02:57;13.57;;;10.93;;
54899;SDS011;40801;41.924;25.562;2023-04-03T10:11:08;11.32;;;9.85;;
54899;SDS011;40801;41.924;25.562;2023-04-03T10:13:55;25.90;;;23.85;;
54899;SDS011;40801;41.924;25.562;2023-04-03T10:16:25;11.43;;;10.23;;
54899;SDS011;40801;41.924;25.562;2023-04-03T10:21:40;13.05;;;11.57;;
54899;SDS011;40801;41.924;25.562;2023-04-03T10:24:10;13.18;;;11.95;;
54899;SDS011;40801;41.924;25.562;2023-04-03T10:35:00;69.45;;;54.55;;
54899;SDS011;40801;41.924;25.562;2023-04-03T10:40:34;15.15;;;13.65;;
54899;SDS011;40801;41.924;25.562;2023-04-03T10:52:37;24.73;;;21.40;;
54899;SDS011;40801;41.924;25.562;2023-04-03T10:55:21;11.15;;;9.65;;
54899;SDS011;40801;41.924;25.562;2023-04-03T10:57:47;18.42;;;16.00;;
54899;SDS011;40801;41.924;25.562;2023-04-03T11:00:15;12.70;;;10.00;;
54899;SDS011;40801;41.924;25.562;2023-04-03T11:02:52;18.98;;;16.98;;
54899;SDS011;40801;41.924;25.562;2023-04-03T11:05:21;18.02;;;14.98;;
54899;SDS011;40801;41.924;25.562;2023-04-03T11:07:50;9.85;;;7.38;;
54899;SDS011;40801;41.924;25.562;2023-04-03T11:10:22;10.30;;;9.27;;
54899;SDS011;40801;41.924;25.562;2023-04-03T11:15:43;12.48;;;10.90;;
54899;SDS011;40801;41.924;25.562;2023-04-03T11:18:19;11.35;;;10.18;;
54899;SDS011;40801;41.924;25.562;2023-04-03T11:20:59;10.07;;;9.07;;
54899;SDS011;40801;41.924;25.562;2023-04-03T11:23:31;8.83;;;8.03;;
54899;SDS011;40801;41.924;25.562;2023-04-03T11:26:21;8.77;;;7.78;;
54899;SDS011;40801;41.924;25.562;2023-04-03T11:28:52;13.20;;;11.90;;
54899;SDS011;40801;41.924;25.562;2023-04-03T11:31:25;9.48;;;8.57;;
54899;SDS011;40801;41.924;25.562;2023-04-03T11:36:29;13.77;;;12.57;;
54899;SDS011;40801;41.924;25.562;2023-04-03T11:39:00;9.55;;;8.60;;
54899;SDS011;40801;41.924;25.562;2023-04-03T11:41:32;11.45;;;9.77;;
54899;SDS011;40801;41.924;25.562;2023-04-03T11:44:00;10.48;;;9.02;;
54899;SDS011;40801;41.924;25.562;2023-04-03T11:46:48;10.65;;;8.68;;
54899;SDS011;40801;41.924;25.562;2023-04-03T12:08:36;13.95;;;11.20;;
54899;SDS011;40801;41.924;25.562;2023-04-03T12:16:20;35.17;;;31.55;;
54899;SDS011;40801;41.924;25.562;2023-04-03T12:21:18;13.30;;;11.57;;
54899;SDS011;40801;41.924;25.562;2023-04-03T12:26:30;13.45;;;11.30;;
54899;SDS011;40801;41.924;25.562;2023-04-03T12:29:17;11.77;;;10.60;;
54899;SDS011;40801;41.924;25.562;2023-04-03T12:48:51;18.50;;;14.57;;
54899;SDS011;40801;41.924;25.562;2023-04-03T12:51:39;12.25;;;10.90;;
54899;SDS011;40801;41.924;25.562;2023-04-03T12:56:40;13.25;;;11.85;;
54899;SDS011;40801;41.924;25.562;2023-04-03T12:59:39;14.82;;;13.43;;
54899;SDS011;40801;41.924;25.562;2023-04-03T13:01:58;15.52;;;13.63;;
54899;SDS011;40801;41.924;25.562;2023-04-03T13:04:29;13.48;;;12.05;;
54899;SDS011;40801;41.924;25.562;2023-04-03T13:06:56;15.48;;;13.90;;
54899;SDS011;40801;41.924;25.562;2023-04-03T13:09:24;14.98;;;11.85;;
54899;SDS011;40801;41.924;25.562;2023-04-03T13:11:52;11.85;;;10.63;;
54899;SDS011;40801;41.924;25.562;2023-04-03T13:14:26;14.48;;;11.50;;
54899;SDS011;40801;41.924;25.562;2023-04-03T13:19:22;13.25;;;11.10;;
54899;SDS011;40801;41.924;25.562;2023-04-03T13:21:49;15.05;;;11.95;;
54899;SDS011;40801;41.924;25.562;2023-04-03T13:24:18;20.77;;;15.57;;
54899;SDS011;40801;41.924;25.562;2023-04-03T13:26:44;13.18;;;11.88;;
54899;SDS011;40801;41.924;25.562;2023-04-03T13:29:21;15.25;;;12.45;;
54899;SDS011;40801;41.924;25.562;2023-04-03T13:31:53;16.08;;;14.38;;
54899;SDS011;40801;41.924;25.562;2023-04-03T13:34:20;14.60;;;13.07;;
54899;SDS011;40801;41.924;25.562;2023-04-03T13:41:47;15.32;;;12.88;;
54899;SDS011;40801;41.924;25.562;2023-04-03T13:44:36;15.32;;;13.50;;
54899;SDS011;40801;41.924;25.562;2023-04-03T13:49:40;18.30;;;15.00;;
54899;SDS011;40801;41.924;25.562;2023-04-03T13:54:47;20.10;;;16.83;;
54899;SDS011;40801;41.924;25.562;2023-04-03T13:57:16;19.08;;;16.50;;
54899;SDS011;40801;41.924;25.562;2023-04-03T13:59:42;20.83;;;18.63;;
54899;SDS011;40801;41.924;25.562;2023-04-03T14:07:02;19.55;;;16.70;;
54899;SDS011;40801;41.924;25.562;2023-04-03T14:09:28;19.50;;;15.05;;
54899;SDS011;40801;41.924;25.562;2023-04-03T14:12:00;19.45;;;17.13;;
54899;SDS011;40801;41.924;25.562;2023-04-03T14:14:32;18.45;;;15.43;;
54899;SDS011;40801;41.924;25.562;2023-04-03T14:17:02;18.35;;;15.10;;
54899;SDS011;40801;41.924;25.562;2023-04-03T14:19:35;22.95;;;16.38;;
54899;SDS011;40801;41.924;25.562;2023-04-03T14:22:10;17.02;;;15.25;;
54899;SDS011;40801;41.924;25.562;2023-04-03T14:24:38;21.90;;;15.35;;
54899;SDS011;40801;41.924;25.562;2023-04-03T14:27:05;16.25;;;14.50;;
54899;SDS011;40801;41.924;25.562;2023-04-03T14:29:40;20.92;;;17.88;;
54899;SDS011;40801;41.924;25.562;2023-04-03T14:32:06;17.80;;;15.48;;
54899;SDS011;40801;41.924;25.562;2023-04-03T14:34:31;17.70;;;14.90;;
54899;SDS011;40801;41.924;25.562;2023-04-03T14:36:57;19.27;;;15.27;;
54899;SDS011;40801;41.924;25.562;2023-04-03T14:39:22;28.95;;;24.05;;
54899;SDS011;40801;41.924;25.562;2023-04-03T14:41:48;20.02;;;16.30;;
54899;SDS011;40801;41.924;25.562;2023-04-03T14:44:13;21.02;;;17.65;;
54899;SDS011;40801;41.924;25.562;2023-04-03T14:46:41;42.95;;;34.03;;
54899;SDS011;40801;41.924;25.562;2023-04-03T14:49:21;24.05;;;19.98;;
54899;SDS011;40801;41.924;25.562;2023-04-03T14:51:49;22.25;;;20.00;;
54899;SDS011;40801;41.924;25.562;2023-04-03T14:54:17;20.58;;;18.35;;
54899;SDS011;40801;41.924;25.562;2023-04-03T14:56:46;17.77;;;15.88;;
54899;SDS011;40801;41.924;25.562;2023-04-03T14:59:12;16.00;;;13.85;;
54899;SDS011;40801;41.924;25.562;2023-04-03T15:01:39;17.13;;;14.70;;
54899;SDS011;40801;41.924;25.562;2023-04-03T15:04:09;20.33;;;17.45;;
54899;SDS011;40801;41.924;25.562;2023-04-03T15:06:37;28.45;;;24.48;;
54899;SDS011;40801;41.924;25.562;2023-04-03T15:09:02;27.70;;;22.17;;
54899;SDS011;40801;41.924;25.562;2023-04-03T15:11:28;22.25;;;19.95;;
54899;SDS011;40801;41.924;25.562;2023-04-03T15:13:54;22.13;;;19.55;;
54899;SDS011;40801;41.924;25.562;2023-04-03T15:16:19;23.00;;;20.35;;
54899;SDS011;40801;41.924;25.562;2023-04-03T15:18:45;25.52;;;20.52;;
54899;SDS011;40801;41.924;25.562;2023-04-03T15:21:12;22.02;;;18.58;;
54899;SDS011;40801;41.924;25.562;2023-04-03T15:23:38;24.15;;;20.02;;
54899;SDS011;40801;41.924;25.562;2023-04-03T15:26:03;21.85;;;17.85;;
54899;SDS011;40801;41.924;25.562;2023-04-03T15:28:31;19.95;;;16.88;;
54899;SDS011;40801;41.924;25.562;2023-04-03T15:30:58;19.57;;;15.53;;
54899;SDS011;40801;41.924;25.562;2023-04-03T15:33:24;30.40;;;24.25;;
54899;SDS011;40801;41.924;25.562;2023-04-03T15:35:51;41.25;;;37.05;;
54899;SDS011;40801;41.924;25.562;2023-04-03T15:38:16;28.27;;;24.23;;
54899;SDS011;40801;41.924;25.562;2023-04-03T15:40:42;20.17;;;18.13;;
54899;SDS011;40801;41.924;25.562;2023-04-03T15:43:08;18.25;;;15.38;;
54899;SDS011;40801;41.924;25.562;2023-04-03T15:45:35;17.40;;;15.63;;
54899;SDS011;40801;41.924;25.562;2023-04-03T15:48:02;22.27;;;19.92;;
54899;SDS011;40801;41.924;25.562;2023-04-03T15:50:29;18.38;;;16.42;;
54899;SDS011;40801;41.924;25.562;2023-04-03T15:52:56;20.02;;;17.92;;
54899;SDS011;40801;41.924;25.562;2023-04-03T15:55:23;25.60;;;20.90;;
54899;SDS011;40801;41.924;25.562;2023-04-03T15:57:50;29.15;;;21.88;;
54899;SDS011;40801;41.924;25.562;2023-04-03T16:00:16;27.13;;;19.20;;
54899;SDS011;40801;41.924;25.562;2023-04-03T16:02:42;26.92;;;20.88;;
54899;SDS011;40801;41.924;25.562;2023-04-03T16:05:10;23.80;;;19.05;;
54899;SDS011;40801;41.924;25.562;2023-04-03T16:07:37;19.73;;;17.15;;
54899;SDS011;40801;41.924;25.562;2023-04-03T16:10:04;24.05;;;19.00;;
54899;SDS011;40801;41.924;25.562;2023-04-03T16:12:30;20.58;;;17.60;;
54899;SDS011;40801;41.924;25.562;2023-04-03T16:14:56;24.55;;;21.33;;
54899;SDS011;40801;41.924;25.562;2023-04-03T16:17:22;34.08;;;27.33;;
54899;SDS011;40801;41.924;25.562;2023-04-03T16:19:47;33.33;;;29.70;;
54899;SDS011;40801;41.924;25.562;2023-04-03T16:22:13;27.88;;;24.98;;
54899;SDS011;40801;41.924;25.562;2023-04-03T16:24:38;32.53;;;29.17;;
54899;SDS011;40801;41.924;25.562;2023-04-03T16:27:04;27.38;;;24.52;;
54899;SDS011;40801;41.924;25.562;2023-04-03T16:29:30;104.85;;;90.13;;
54899;SDS011;40801;41.924;25.562;2023-04-03T16:31:56;65.10;;;57.53;;
54899;SDS011;40801;41.924;25.562;2023-04-03T16:34:23;60.70;;;48.60;;
54899;SDS011;40801;41.924;25.562;2023-04-03T16:36:51;35.63;;;31.60;;
54899;SDS011;40801;41.924;25.562;2023-04-03T16:39:17;41.28;;;32.42;;
54899;SDS011;40801;41.924;25.562;2023-04-03T16:41:43;40.75;;;32.33;;